createdAt,value
2018-11-21T00:00:05.252Z,98.50
2018-11-21T00:02:36.606Z,98.50
2018-11-21T00:05:10.411Z,98.40
2018-11-21T00:07:41.688Z,98.50
2018-11-21T00:10:14.634Z,98.80
2018-11-21T00:12:49.147Z,98.90
2018-11-21T00:15:23.135Z,98.80
2018-11-21T00:17:54.554Z,98.80
2018-11-21T00:20:25.797Z,98.80
2018-11-21T00:22:57.314Z,99.00
2018-11-21T00:25:28.616Z,99.30
2018-11-21T00:27:59.782Z,99.40
2018-11-21T00:30:30.984Z,99.60
2018-11-21T00:33:05.082Z,99.90
2018-11-21T00:35:33.661Z,99.90
2018-11-21T00:38:04.897Z,99.90
2018-11-21T00:40:36.091Z,99.90
2018-11-21T00:43:07.569Z,99.90
2018-11-21T00:45:38.762Z,99.90
2018-11-21T00:48:10.121Z,99.90
2018-11-21T00:50:41.502Z,99.90
2018-11-21T00:53:12.625Z,99.90
2018-11-21T00:55:43.890Z,99.90
2018-11-21T00:58:18.218Z,99.90
2018-11-21T01:00:49.458Z,99.90
2018-11-21T01:03:20.789Z,99.90
2018-11-21T01:05:51.993Z,99.90
2018-11-21T01:08:23.325Z,99.90
2018-11-21T01:10:54.878Z,99.90
2018-11-21T01:13:26.129Z,99.90
2018-11-21T01:15:57.443Z,99.90
2018-11-21T01:18:28.710Z,99.90
2018-11-21T01:20:59.923Z,99.90
2018-11-21T01:23:31.343Z,99.90
2018-11-21T01:26:02.584Z,99.90
2018-11-21T01:28:33.898Z,99.90
2018-11-21T01:31:05.157Z,99.90
2018-11-21T01:33:36.735Z,99.90
2018-11-21T01:36:07.897Z,99.90
2018-11-21T01:38:39.066Z,99.90
2018-11-21T01:41:10.262Z,99.90
2018-11-21T01:43:42.101Z,99.90
2018-11-21T01:46:13.263Z,99.90
2018-11-21T01:48:44.579Z,99.90
2018-11-21T01:51:15.719Z,99.90
2018-11-21T01:53:46.928Z,99.90
2018-11-21T01:56:18.198Z,99.90
2018-11-21T01:58:49.376Z,99.90
2018-11-21T02:01:22.106Z,99.90
2018-11-21T02:03:53.287Z,99.90
2018-11-21T02:06:24.539Z,99.90
2018-11-21T02:08:55.824Z,99.90
2018-11-21T02:11:26.978Z,99.90
2018-11-21T02:13:58.274Z,99.90
2018-11-21T02:16:29.507Z,99.90
2018-11-21T02:19:00.804Z,99.90
2018-11-21T02:21:32.050Z,99.90
2018-11-21T02:24:03.379Z,99.90
2018-11-21T02:26:34.570Z,99.90
2018-11-21T02:29:05.734Z,99.90
2018-11-21T02:31:37.192Z,99.90
2018-11-21T02:34:08.763Z,99.90
2018-11-21T02:36:40.413Z,99.90
2018-11-21T02:39:12.760Z,99.90
2018-11-21T02:41:43.949Z,99.90
2018-11-21T02:44:15.199Z,99.90
2018-11-21T02:46:46.332Z,99.90
2018-11-21T02:49:17.565Z,99.90
2018-11-21T02:51:48.794Z,99.90
2018-11-21T02:54:19.999Z,99.90
2018-11-21T02:57:29.953Z,99.90
2018-11-21T03:02:34.579Z,99.90
2018-11-21T03:05:05.704Z,99.90
2018-11-21T03:07:36.846Z,99.90
2018-11-21T03:10:08.912Z,99.90
2018-11-21T03:12:40.037Z,99.90
2018-11-21T03:15:11.234Z,99.90
2018-11-21T03:17:42.585Z,99.90
2018-11-21T03:20:13.727Z,99.90
2018-11-21T03:22:44.879Z,99.90
2018-11-21T03:25:16.157Z,99.90
2018-11-21T03:27:47.339Z,99.90
2018-11-21T03:30:18.470Z,99.90
2018-11-21T03:32:49.784Z,99.90
2018-11-21T03:35:21.136Z,99.90
2018-11-21T03:37:52.672Z,99.90
2018-11-21T03:40:23.831Z,99.90
2018-11-21T03:42:55.662Z,99.90
2018-11-21T03:45:26.810Z,99.90
2018-11-21T03:47:58.121Z,99.90
2018-11-21T03:50:29.248Z,99.90
2018-11-21T03:53:00.380Z,99.90
2018-11-21T03:55:31.600Z,99.90
2018-11-21T03:58:02.731Z,99.90
2018-11-21T04:00:33.986Z,99.90
2018-11-21T04:03:05.149Z,99.90
2018-11-21T04:05:36.313Z,99.90
2018-11-21T04:08:08.815Z,99.90
2018-11-21T04:10:39.955Z,99.90
2018-11-21T04:13:11.092Z,99.90
2018-11-21T04:15:42.299Z,99.90
2018-11-21T04:18:13.529Z,99.90
2018-11-21T04:20:44.683Z,99.90
2018-11-21T04:23:16.066Z,99.90
2018-11-21T04:25:47.250Z,99.90
2018-11-21T04:28:18.520Z,99.90
2018-11-21T04:30:49.690Z,99.90
2018-11-21T04:33:20.906Z,99.90
2018-11-21T04:35:58.292Z,99.90
2018-11-21T04:38:23.408Z,99.90
2018-11-21T04:40:54.469Z,99.90
2018-11-21T04:43:26.389Z,99.90
2018-11-21T04:45:57.517Z,99.90
2018-11-21T04:48:29.841Z,99.90
2018-11-21T04:51:00.849Z,99.90
2018-11-21T04:53:31.888Z,99.90
2018-11-21T04:56:03.081Z,99.90
2018-11-21T04:58:34.209Z,99.90
2018-11-21T05:01:06.551Z,99.90
2018-11-21T05:03:37.714Z,99.90
2018-11-21T05:06:09.051Z,99.90
2018-11-21T05:08:40.130Z,99.90
2018-11-21T05:11:11.344Z,99.90
2018-11-21T05:13:42.479Z,99.90
2018-11-21T05:16:13.585Z,99.90
2018-11-21T05:18:44.682Z,99.90
2018-11-21T05:21:15.765Z,99.90
2018-11-21T05:23:46.939Z,99.90
2018-11-21T05:26:18.042Z,99.90
2018-11-21T05:28:49.136Z,99.90
2018-11-21T05:31:20.297Z,99.90
2018-11-21T05:33:51.392Z,99.90
2018-11-21T05:36:22.469Z,99.90
2018-11-21T05:38:53.659Z,99.90
2018-11-21T05:41:24.785Z,99.90
2018-11-21T05:43:56.987Z,99.90
2018-11-21T05:46:28.087Z,99.90
2018-11-21T05:48:59.136Z,99.90
2018-11-21T05:51:30.292Z,99.90
2018-11-21T05:54:01.376Z,99.90
2018-11-21T05:56:32.419Z,99.90
2018-11-21T05:59:03.585Z,99.90
2018-11-21T06:01:34.676Z,99.90
2018-11-21T06:04:05.850Z,99.90
2018-11-21T06:06:36.924Z,99.90
2018-11-21T06:09:12.197Z,99.90
2018-11-21T06:11:43.943Z,99.90
2018-11-21T06:14:15.087Z,99.90
2018-11-21T06:16:46.288Z,99.90
2018-11-21T06:19:17.357Z,99.90
2018-11-21T06:21:48.529Z,99.90
2018-11-21T06:24:19.592Z,99.90
2018-11-21T06:27:01.458Z,99.90
2018-11-21T06:29:32.483Z,99.90
2018-11-21T06:32:03.578Z,99.90
2018-11-21T06:34:36.831Z,99.90
2018-11-21T06:37:08.007Z,99.90
2018-11-21T06:39:39.057Z,99.90
2018-11-21T06:42:10.159Z,99.90
2018-11-21T06:44:41.212Z,99.90
2018-11-21T06:47:12.793Z,99.90
2018-11-21T06:49:43.882Z,99.90
2018-11-21T06:52:21.935Z,99.90
2018-11-21T06:54:46.226Z,99.90
2018-11-21T06:57:17.423Z,99.90
2018-11-21T06:59:48.494Z,99.90
2018-11-21T07:02:19.670Z,99.90
2018-11-21T07:04:50.780Z,99.90
2018-11-21T07:07:21.866Z,99.90
2018-11-21T07:09:52.975Z,99.90
2018-11-21T07:12:24.031Z,99.90
2018-11-21T07:14:55.197Z,99.90
2018-11-21T07:17:26.434Z,99.90
2018-11-21T07:19:57.482Z,99.90
2018-11-21T07:22:28.697Z,99.90
2018-11-21T07:24:59.814Z,99.90
2018-11-21T07:27:30.904Z,99.90
2018-11-21T07:30:02.005Z,99.90
2018-11-21T07:32:33.177Z,99.90
2018-11-21T07:35:04.267Z,99.90
2018-11-21T07:37:35.308Z,99.90
2018-11-21T07:40:07.240Z,99.90
2018-11-21T07:42:38.302Z,99.90
2018-11-21T07:45:11.897Z,99.90
2018-11-21T07:47:44.163Z,99.90
2018-11-21T07:50:17.722Z,99.90
2018-11-21T07:52:48.851Z,99.90
2018-11-21T07:55:19.957Z,99.90
2018-11-21T07:57:55.782Z,99.90
2018-11-21T08:01:13.811Z,99.90
2018-11-21T08:03:47.006Z,99.90
2018-11-21T08:06:42.741Z,99.90
2018-11-21T08:09:35.541Z,99.90
2018-11-21T08:12:36.975Z,99.90
2018-11-21T08:15:25.851Z,99.90
2018-11-21T08:18:05.455Z,99.90
2018-11-21T08:20:50.478Z,99.90
2018-11-21T08:23:32.109Z,99.90
2018-11-21T08:26:26.740Z,99.90
2018-11-21T08:28:57.826Z,99.90
2018-11-21T08:31:28.868Z,99.90
2018-11-21T08:33:59.994Z,99.90
2018-11-21T08:36:31.052Z,99.90
2018-11-21T08:39:02.123Z,99.90
2018-11-21T08:41:33.305Z,99.90
2018-11-21T08:44:04.445Z,99.90
2018-11-21T08:46:35.947Z,99.90
2018-11-21T08:49:07.522Z,99.90
2018-11-21T08:51:38.618Z,99.90
2018-11-21T08:54:09.739Z,99.90
2018-11-21T08:56:40.980Z,99.90
2018-11-21T08:59:12.193Z,99.90
2018-11-21T09:01:43.243Z,99.90
2018-11-21T09:04:14.354Z,99.90
2018-11-21T09:06:45.445Z,99.90
2018-11-21T09:09:16.579Z,99.90
2018-11-21T09:11:47.781Z,99.90
2018-11-21T09:14:19.005Z,99.90
2018-11-21T09:16:50.197Z,99.90
2018-11-21T09:19:21.339Z,99.90
2018-11-21T09:21:52.445Z,99.90
2018-11-21T09:24:23.501Z,99.90
2018-11-21T09:26:54.773Z,99.90
2018-11-21T09:29:28.061Z,99.90
2018-11-21T09:31:59.261Z,99.90
2018-11-21T09:34:30.338Z,99.90
2018-11-21T09:37:01.408Z,99.90
2018-11-21T09:39:32.506Z,99.90
2018-11-21T09:42:03.563Z,99.90
2018-11-21T09:44:34.658Z,99.90
2018-11-21T09:47:05.857Z,99.90
2018-11-21T09:49:36.898Z,99.90
2018-11-21T09:52:08.079Z,99.90
2018-11-21T09:54:39.504Z,99.90
2018-11-21T09:57:10.552Z,99.90
2018-11-21T09:59:41.785Z,99.90
2018-11-21T10:02:48.326Z,99.90
2018-11-21T10:05:19.549Z,99.90
2018-11-21T10:08:19.655Z,99.90
2018-11-21T10:10:50.820Z,99.90
2018-11-21T10:13:21.874Z,99.90
2018-11-21T10:15:53.007Z,99.90
2018-11-21T10:18:24.153Z,99.90
2018-11-21T10:20:55.202Z,99.90
2018-11-21T10:23:26.423Z,99.90
2018-11-21T10:25:57.502Z,99.90
2018-11-21T10:28:28.538Z,99.90
2018-11-21T10:31:00.185Z,99.90
2018-11-21T10:33:31.365Z,99.90
2018-11-21T10:36:02.644Z,99.90
2018-11-21T10:38:34.294Z,99.90
2018-11-21T10:41:05.511Z,99.90
2018-11-21T10:43:37.483Z,99.90
2018-11-21T10:46:09.088Z,99.90
2018-11-21T10:48:40.511Z,99.90
2018-11-21T10:51:11.660Z,99.90
2018-11-21T10:53:42.742Z,99.90
2018-11-21T10:56:13.818Z,99.90
2018-11-21T10:58:45.048Z,99.90
2018-11-21T11:01:28.485Z,99.90
2018-11-21T11:04:07.191Z,99.90
2018-11-21T11:07:02.503Z,99.90
2018-11-21T11:10:04.300Z,99.90
2018-11-21T11:13:02.590Z,99.90
2018-11-21T11:15:55.218Z,99.90
2018-11-21T11:18:54.279Z,99.90
2018-11-21T11:21:49.160Z,99.90
2018-11-21T11:24:37.073Z,99.90
2018-11-21T11:27:25.970Z,99.90
2018-11-21T11:30:22.321Z,99.90
2018-11-21T11:33:14.975Z,99.90
2018-11-21T11:36:03.388Z,99.90
2018-11-21T11:39:07.864Z,99.90
2018-11-21T11:42:06.655Z,99.90
2018-11-21T11:45:00.994Z,99.90
2018-11-21T11:48:05.458Z,99.90
2018-11-21T11:51:06.303Z,99.90
2018-11-21T11:53:58.671Z,99.90
2018-11-21T11:56:47.161Z,99.90
2018-11-21T11:59:36.810Z,99.90
2018-11-21T12:02:44.601Z,99.90
2018-11-21T12:05:52.362Z,99.90
2018-11-21T12:08:51.130Z,99.90
2018-11-21T12:11:39.520Z,99.90
2018-11-21T12:14:27.744Z,99.90
2018-11-21T12:17:15.744Z,99.90
2018-11-21T12:20:04.115Z,99.90
2018-11-21T12:22:47.336Z,99.90
2018-11-21T12:25:35.324Z,99.90
2018-11-21T12:28:23.670Z,99.90
2018-11-21T12:31:19.056Z,99.90
2018-11-21T12:34:11.478Z,99.90
2018-11-21T12:36:59.783Z,99.90
2018-11-21T12:39:52.179Z,99.90
2018-11-21T12:42:40.239Z,99.90
2018-11-21T12:45:28.599Z,99.90
2018-11-21T12:48:21.191Z,99.90
2018-11-21T12:51:19.930Z,99.90
2018-11-21T12:54:03.520Z,99.90
2018-11-21T12:56:51.714Z,99.90
2018-11-21T12:59:50.562Z,99.90
2018-11-21T13:02:36.963Z,99.90
2018-11-21T13:05:33.134Z,99.90
2018-11-21T13:08:41.121Z,99.90
2018-11-21T13:11:29.384Z,99.90
2018-11-21T13:14:22.183Z,99.90
2018-11-21T13:17:10.565Z,99.90
2018-11-21T13:19:58.364Z,99.90
2018-11-21T13:22:47.009Z,99.90
2018-11-21T13:25:36.690Z,99.90
2018-11-21T13:28:32.531Z,99.90
2018-11-21T13:31:37.030Z,99.90
2018-11-21T13:34:36.095Z,99.90
2018-11-21T13:37:22.057Z,99.90
2018-11-21T13:40:13.794Z,99.90
2018-11-21T13:43:03.502Z,99.90
2018-11-21T13:45:55.827Z,99.90
2018-11-21T13:49:00.596Z,99.90
2018-11-21T13:51:53.966Z,99.90
2018-11-21T13:54:42.111Z,99.90
2018-11-21T13:57:13.316Z,99.90
2018-11-21T13:59:44.356Z,99.90
2018-11-21T14:02:15.587Z,99.90
2018-11-21T14:04:46.726Z,99.90
2018-11-21T14:07:17.959Z,99.90
2018-11-21T14:09:49.157Z,99.90
2018-11-21T14:12:20.289Z,99.90
2018-11-21T14:14:51.371Z,99.90
2018-11-21T14:17:27.500Z,99.90
2018-11-21T14:19:53.705Z,99.90
2018-11-21T14:22:24.809Z,99.90
2018-11-21T14:24:55.975Z,99.90
2018-11-21T14:27:29.750Z,99.90
2018-11-21T14:30:00.893Z,99.90
2018-11-21T14:32:31.953Z,99.90
2018-11-21T14:35:05.733Z,99.90
2018-11-21T14:37:36.989Z,99.90
2018-11-21T14:40:11.524Z,99.90
2018-11-21T14:42:42.930Z,99.90
2018-11-21T14:45:18.808Z,99.90
2018-11-21T14:47:52.175Z,99.90
2018-11-21T14:50:39.098Z,99.90
2018-11-21T14:53:05.409Z,99.90
2018-11-21T14:55:36.484Z,99.90
2018-11-21T14:58:07.681Z,99.90
2018-11-21T15:00:38.841Z,99.90
2018-11-21T15:03:10.010Z,99.90
2018-11-21T15:05:41.198Z,99.90
2018-11-21T15:08:12.324Z,99.90
2018-11-21T15:10:43.435Z,99.90
2018-11-21T15:13:14.684Z,99.90
2018-11-21T15:15:45.825Z,99.90
2018-11-21T15:18:17.305Z,99.90
2018-11-21T15:20:48.643Z,99.90
2018-11-21T15:23:19.818Z,99.90
2018-11-21T15:25:51.198Z,99.90
2018-11-21T15:28:22.363Z,99.90
2018-11-21T15:30:53.659Z,99.90
2018-11-21T15:33:24.944Z,99.90
2018-11-21T15:35:56.384Z,99.90
2018-11-21T15:38:27.544Z,99.90
2018-11-21T15:40:58.721Z,99.90
2018-11-21T15:43:29.979Z,99.90
2018-11-21T15:46:01.140Z,99.90
2018-11-21T15:48:32.374Z,99.90
2018-11-21T15:51:04.061Z,99.90
2018-11-21T15:53:35.252Z,99.90
2018-11-21T15:56:06.574Z,99.90
2018-11-21T15:58:40.453Z,99.90
2018-11-21T16:01:14.267Z,99.90
2018-11-21T16:03:45.597Z,99.90
2018-11-21T16:06:16.882Z,99.90
2018-11-21T16:08:48.419Z,99.90
2018-11-21T16:11:19.262Z,99.90
2018-11-21T16:13:50.599Z,99.90
2018-11-21T16:16:24.574Z,99.90
2018-11-21T16:18:55.661Z,99.90
2018-11-21T16:21:26.959Z,99.90
2018-11-21T16:23:58.249Z,99.90
2018-11-21T16:26:29.588Z,99.60
2018-11-21T16:29:03.578Z,98.40
2018-11-21T16:31:35.085Z,97.80
2018-11-21T16:34:05.890Z,99.10
2018-11-21T16:36:37.238Z,98.40
2018-11-21T16:39:16.825Z,98.40
2018-11-21T16:41:48.410Z,97.30
2018-11-21T16:44:19.594Z,95.70
2018-11-21T16:46:50.814Z,95.40
2018-11-21T16:49:21.994Z,95.40
2018-11-21T16:51:53.239Z,95.40
2018-11-21T16:54:24.527Z,94.30
2018-11-21T16:56:55.747Z,94.90
2018-11-21T16:59:27.065Z,95.30
2018-11-21T17:01:58.372Z,94.40
2018-11-21T17:04:29.587Z,94.70
2018-11-21T17:07:00.708Z,94.50
2018-11-21T17:09:45.317Z,94.90
2018-11-21T17:12:16.893Z,95.20
2018-11-21T17:14:48.068Z,95.20
2018-11-21T17:17:19.247Z,96.20
2018-11-21T17:19:50.366Z,96.70
2018-11-21T17:22:21.716Z,97.10
2018-11-21T17:24:55.176Z,97.30
2018-11-21T17:27:27.011Z,97.60
2018-11-21T17:29:58.303Z,98.00
2018-11-21T17:32:29.530Z,98.10
2018-11-21T17:35:00.919Z,97.50
2018-11-21T17:37:32.116Z,98.60
2018-11-21T17:40:04.530Z,99.90
2018-11-21T17:42:36.614Z,99.90
2018-11-21T17:45:08.999Z,99.90
2018-11-21T17:47:43.202Z,99.90
2018-11-21T17:50:22.599Z,99.90
2018-11-21T17:52:56.290Z,99.90
2018-11-21T17:55:31.337Z,99.90
2018-11-21T17:58:03.341Z,99.90
2018-11-21T18:00:34.759Z,99.90
2018-11-21T18:03:06.100Z,99.90
2018-11-21T18:05:39.115Z,99.90
2018-11-21T18:08:10.268Z,99.90
2018-11-21T18:10:42.602Z,99.90
2018-11-21T18:13:13.884Z,99.90
2018-11-21T18:15:45.185Z,99.90
2018-11-21T18:18:16.516Z,99.90
2018-11-21T18:20:49.213Z,99.90
2018-11-21T18:23:20.472Z,99.90
2018-11-21T18:25:51.720Z,99.90
2018-11-21T18:28:23.065Z,99.90
2018-11-21T18:30:54.329Z,99.90
2018-11-21T18:33:27.303Z,99.90
2018-11-21T18:35:58.621Z,99.90
2018-11-21T18:38:32.639Z,99.90
2018-11-21T18:41:03.779Z,99.90
2018-11-21T18:43:34.915Z,99.90
2018-11-21T18:46:06.251Z,99.90
2018-11-21T18:48:37.428Z,99.90
2018-11-21T18:51:09.114Z,99.90
2018-11-21T18:53:40.518Z,99.90
2018-11-21T18:56:21.881Z,99.40
2018-11-21T18:59:21.582Z,98.70
2018-11-21T19:01:52.997Z,98.10
2018-11-21T19:04:24.227Z,97.60
2018-11-21T19:06:55.559Z,96.70
2018-11-21T19:09:26.728Z,96.70
2018-11-21T19:11:57.919Z,96.50
2018-11-21T19:14:29.131Z,96.60
2018-11-21T19:17:00.416Z,96.60
2018-11-21T19:19:31.672Z,96.10
2018-11-21T19:22:02.927Z,95.90
2018-11-21T19:24:34.078Z,96.10
2018-11-21T19:27:05.128Z,96.30
2018-11-21T19:29:39.376Z,96.40
2018-11-21T19:32:10.340Z,96.30
2018-11-21T19:34:44.686Z,96.00
2018-11-21T19:37:19.667Z,96.20
2018-11-21T19:39:50.946Z,95.80
2018-11-21T19:42:23.623Z,95.50
2018-11-21T19:44:55.055Z,95.20
2018-11-21T19:47:26.297Z,95.30
2018-11-21T19:49:57.374Z,95.50
2018-11-21T19:52:28.831Z,95.60
2018-11-21T19:55:01.255Z,95.30
2018-11-21T19:57:32.502Z,96.10
2018-11-21T20:00:03.637Z,96.60
2018-11-21T20:02:34.803Z,96.90
2018-11-21T20:05:06.129Z,97.00
2018-11-21T20:07:37.556Z,96.80
2018-11-21T20:10:09.602Z,96.70
2018-11-21T20:12:42.986Z,96.60
2018-11-21T20:15:16.200Z,95.60
2018-11-21T20:17:49.110Z,95.30
2018-11-21T20:20:21.267Z,94.70
2018-11-21T20:22:52.879Z,94.40
2018-11-21T20:25:25.050Z,94.00
2018-11-21T20:27:56.270Z,93.90
2018-11-21T20:30:32.016Z,93.70
2018-11-21T20:33:03.169Z,93.30
2018-11-21T20:35:34.557Z,93.10
2018-11-21T20:38:05.705Z,93.00
2018-11-21T20:40:37.993Z,93.00
2018-11-21T20:43:11.854Z,93.30
2018-11-21T20:45:43.255Z,93.50
2018-11-21T20:48:14.589Z,93.90
2018-11-21T20:50:45.957Z,94.60
2018-11-21T20:53:17.335Z,95.20
2018-11-21T20:55:48.600Z,95.60
2018-11-21T20:58:19.887Z,95.80
2018-11-21T21:00:54.026Z,95.90
2018-11-21T21:03:25.532Z,95.60
2018-11-21T21:05:56.828Z,95.80
2018-11-21T21:08:28.149Z,96.10
2018-11-21T21:11:01.012Z,96.60
2018-11-21T21:13:35.533Z,96.80
2018-11-21T21:16:06.812Z,97.00
2018-11-21T21:18:38.160Z,97.20
2018-11-21T21:21:09.754Z,97.70
2018-11-21T21:23:41.009Z,98.00
2018-11-21T21:26:12.382Z,98.50
2018-11-21T21:28:44.261Z,98.60
2018-11-21T21:31:15.733Z,98.70
2018-11-21T21:33:47.390Z,99.10
2018-11-21T21:36:18.522Z,99.30
2018-11-21T21:38:49.742Z,99.50
2018-11-21T21:41:21.117Z,99.10
2018-11-21T21:43:52.213Z,98.90
2018-11-21T21:46:23.589Z,98.80
2018-11-21T21:48:55.063Z,98.20
2018-11-21T21:51:26.237Z,98.30
2018-11-21T21:53:57.674Z,98.60
2018-11-21T21:56:28.926Z,98.90
2018-11-21T21:59:00.135Z,99.30
2018-11-21T22:01:31.696Z,99.90
2018-11-21T22:04:05.918Z,99.90
2018-11-21T22:06:37.161Z,99.90
2018-11-21T22:09:13.922Z,99.90
2018-11-21T22:11:46.636Z,99.90
2018-11-21T22:14:17.834Z,99.90
2018-11-21T22:16:49.230Z,99.90
2018-11-21T22:19:20.619Z,99.90
2018-11-21T22:21:51.684Z,99.90
2018-11-21T22:24:22.944Z,99.90
2018-11-21T22:26:54.156Z,99.90
2018-11-21T22:29:25.512Z,99.90
2018-11-21T22:31:56.677Z,99.90
2018-11-21T22:34:30.707Z,99.90
2018-11-21T22:37:01.859Z,99.90
2018-11-21T22:39:33.199Z,99.90
2018-11-21T22:42:04.870Z,99.90
2018-11-21T22:44:35.777Z,99.90
2018-11-21T22:47:06.945Z,99.90
2018-11-21T22:49:38.984Z,99.90
2018-11-21T22:52:10.243Z,99.90
2018-11-21T22:54:41.502Z,99.90
2018-11-21T22:57:12.903Z,99.90
2018-11-21T22:59:46.522Z,99.90
2018-11-21T23:02:18.250Z,99.90
2018-11-21T23:04:49.446Z,99.90
2018-11-21T23:07:26.332Z,99.90
2018-11-21T23:10:00.457Z,99.90
2018-11-21T23:12:31.869Z,99.90
2018-11-21T23:15:03.164Z,99.90
2018-11-21T23:17:34.961Z,99.90
2018-11-21T23:20:06.942Z,99.90
2018-11-21T23:22:38.379Z,99.90
2018-11-21T23:25:11.210Z,99.90
2018-11-21T23:27:42.551Z,99.90
2018-11-21T23:30:18.887Z,99.90
2018-11-21T23:32:50.376Z,99.90
2018-11-21T23:35:22.493Z,99.90
2018-11-21T23:37:53.686Z,99.90
2018-11-21T23:40:24.951Z,99.90
